createdAt,value
2018-12-23T00:00:32.839Z,13.80
2018-12-23T00:03:01.114Z,13.70
2018-12-23T00:05:29.426Z,13.70
2018-12-23T00:07:57.931Z,13.70
2018-12-23T00:10:26.349Z,13.70
2018-12-23T00:12:54.608Z,13.70
2018-12-23T00:15:22.525Z,13.70
2018-12-23T00:17:50.833Z,13.70
2018-12-23T00:20:19.112Z,13.70
2018-12-23T00:22:47.086Z,13.60
2018-12-23T00:25:15.224Z,13.60
2018-12-23T00:27:43.523Z,13.50
2018-12-23T00:30:11.863Z,13.50
2018-12-23T00:32:39.932Z,13.50
2018-12-23T00:35:07.970Z,13.60
2018-12-23T00:37:36.145Z,13.50
2018-12-23T00:40:05.057Z,13.60
2018-12-23T00:42:33.080Z,13.60
2018-12-23T00:45:01.179Z,13.60
2018-12-23T00:47:29.510Z,13.60
2018-12-23T00:49:57.424Z,13.60
2018-12-23T00:52:25.837Z,13.60
2018-12-23T00:54:53.951Z,13.60
2018-12-23T00:57:22.272Z,13.60
2018-12-23T00:59:50.709Z,13.60
2018-12-23T01:02:18.676Z,13.60
2018-12-23T01:04:46.763Z,13.60
2018-12-23T01:07:15.917Z,13.60
2018-12-23T01:09:44.097Z,13.60
2018-12-23T01:12:12.020Z,13.60
2018-12-23T01:14:40.192Z,13.60
2018-12-23T01:17:08.656Z,13.60
2018-12-23T01:19:36.606Z,13.60
2018-12-23T01:22:39.149Z,13.60
2018-12-23T01:25:07.515Z,13.60
2018-12-23T01:27:35.670Z,13.60
2018-12-23T01:30:04.332Z,13.60
2018-12-23T01:32:32.920Z,13.50
2018-12-23T01:35:01.317Z,13.50
2018-12-23T01:37:29.441Z,13.50
2018-12-23T01:39:57.796Z,13.50
2018-12-23T01:42:26.261Z,13.50
2018-12-23T01:44:54.639Z,13.50
2018-12-23T01:47:22.708Z,13.50
2018-12-23T01:49:51.149Z,13.50
2018-12-23T01:52:19.661Z,13.50
2018-12-23T01:54:47.801Z,13.50
2018-12-23T01:57:16.049Z,13.50
2018-12-23T01:59:44.611Z,13.50
2018-12-23T02:02:12.702Z,13.50
2018-12-23T02:04:43.004Z,13.50
2018-12-23T02:07:13.705Z,13.50
2018-12-23T02:09:44.622Z,13.50
2018-12-23T02:12:12.801Z,13.50
2018-12-23T02:14:43.433Z,13.50
2018-12-23T02:17:12.749Z,13.50
2018-12-23T02:19:42.865Z,13.50
2018-12-23T02:22:11.088Z,13.60
2018-12-23T02:24:39.887Z,13.60
2018-12-23T02:27:08.367Z,13.60
2018-12-23T02:29:36.498Z,13.60
2018-12-23T02:32:04.671Z,13.60
2018-12-23T02:34:33.141Z,13.60
2018-12-23T02:37:01.514Z,13.50
2018-12-23T02:39:29.654Z,13.60
2018-12-23T02:41:58.100Z,13.60
2018-12-23T02:44:26.729Z,13.60
2018-12-23T02:46:54.931Z,13.60
2018-12-23T02:49:23.905Z,13.60
2018-12-23T02:51:52.059Z,13.60
2018-12-23T02:54:20.649Z,13.60
2018-12-23T02:56:48.970Z,13.70
2018-12-23T02:59:17.737Z,13.70
2018-12-23T03:01:49.038Z,13.70
2018-12-23T03:04:17.197Z,13.70
2018-12-23T03:06:47.566Z,13.70
2018-12-23T03:09:16.417Z,13.70
2018-12-23T03:11:45.117Z,13.70
2018-12-23T03:14:15.840Z,13.70
2018-12-23T03:16:44.686Z,13.70
2018-12-23T03:19:13.147Z,13.70
2018-12-23T03:21:43.719Z,13.70
2018-12-23T03:24:11.964Z,13.70
2018-12-23T03:26:40.706Z,13.70
2018-12-23T03:29:09.206Z,13.70
2018-12-23T03:31:37.330Z,13.70
2018-12-23T03:34:05.972Z,13.70
2018-12-23T03:36:34.134Z,13.70
2018-12-23T03:39:04.251Z,13.80
2018-12-23T03:41:34.194Z,13.80
2018-12-23T03:44:02.681Z,13.80
2018-12-23T03:46:31.759Z,13.80
2018-12-23T03:48:59.962Z,13.80
2018-12-23T03:51:28.670Z,13.80
2018-12-23T03:53:56.862Z,13.80
2018-12-23T03:56:25.734Z,13.80
2018-12-23T03:58:53.897Z,13.70
2018-12-23T04:01:22.611Z,13.70
2018-12-23T04:03:50.739Z,13.70
2018-12-23T04:06:24.464Z,13.60
2018-12-23T04:08:49.881Z,13.60
2018-12-23T04:11:20.334Z,13.60
2018-12-23T04:13:49.237Z,13.60
2018-12-23T04:16:23.134Z,13.70
2018-12-23T04:18:51.658Z,13.70
2018-12-23T04:21:19.797Z,13.70
2018-12-23T04:23:48.420Z,13.70
2018-12-23T04:26:17.353Z,13.70
2018-12-23T04:28:46.576Z,13.60
2018-12-23T04:31:17.765Z,13.70
2018-12-23T04:33:45.945Z,13.70
2018-12-23T04:36:14.237Z,13.70
2018-12-23T04:38:42.661Z,13.70
2018-12-23T04:41:11.013Z,13.60
2018-12-23T04:43:39.165Z,13.60
2018-12-23T04:46:08.051Z,13.60
2018-12-23T04:48:36.695Z,13.60
2018-12-23T04:51:05.271Z,13.70
2018-12-23T04:53:34.073Z,13.60
2018-12-23T04:56:02.658Z,13.60
2018-12-23T04:58:31.225Z,13.60
2018-12-23T05:00:59.721Z,13.60
2018-12-23T05:03:28.117Z,13.60
2018-12-23T05:05:56.238Z,13.60
2018-12-23T05:08:24.706Z,13.60
2018-12-23T05:10:56.065Z,13.70
2018-12-23T05:13:24.211Z,13.60
2018-12-23T05:15:55.850Z,13.60
2018-12-23T05:18:23.972Z,13.60
2018-12-23T05:20:53.802Z,13.60
2018-12-23T05:23:22.019Z,13.60
2018-12-23T05:25:50.941Z,13.60
2018-12-23T05:28:20.887Z,13.60
2018-12-23T05:30:51.206Z,13.60
2018-12-23T05:33:19.938Z,13.60
2018-12-23T05:35:50.625Z,13.60
2018-12-23T05:38:19.522Z,13.60
2018-12-23T05:40:48.349Z,13.60
2018-12-23T05:43:17.142Z,13.60
2018-12-23T05:45:45.944Z,13.60
2018-12-23T05:48:14.490Z,13.60
2018-12-23T05:50:42.609Z,13.60
2018-12-23T05:53:11.008Z,13.60
2018-12-23T05:55:38.043Z,13.60
2018-12-23T05:58:06.574Z,13.70
2018-12-23T06:00:36.194Z,13.60
2018-12-23T06:03:04.826Z,13.60
2018-12-23T06:05:33.757Z,13.70
2018-12-23T06:08:02.438Z,13.70
2018-12-23T06:10:30.956Z,13.70
2018-12-23T06:12:59.134Z,13.70
2018-12-23T06:15:27.424Z,13.70
2018-12-23T06:17:55.949Z,13.70
2018-12-23T06:20:24.309Z,13.60
2018-12-23T06:22:52.928Z,13.70
2018-12-23T06:25:30.410Z,13.70
2018-12-23T06:27:58.550Z,13.70
2018-12-23T06:30:29.642Z,13.70
2018-12-23T06:32:58.019Z,13.70
2018-12-23T06:35:28.532Z,13.70
2018-12-23T06:37:57.891Z,13.60
2018-12-23T06:40:26.089Z,13.60
2018-12-23T06:42:54.756Z,13.60
2018-12-23T06:45:22.937Z,13.60
2018-12-23T06:48:03.566Z,13.50
2018-12-23T06:50:31.785Z,13.50
2018-12-23T06:53:00.375Z,13.50
2018-12-23T06:55:30.462Z,13.40
2018-12-23T06:57:58.726Z,13.40
2018-12-23T07:00:30.066Z,13.40
2018-12-23T07:03:01.039Z,13.50
2018-12-23T07:05:30.456Z,13.40
2018-12-23T07:08:00.012Z,13.40
2018-12-23T07:10:30.437Z,13.40
2018-12-23T07:13:00.797Z,13.40
2018-12-23T07:15:31.300Z,13.50
2018-12-23T07:17:59.552Z,13.50
2018-12-23T07:20:27.702Z,13.50
2018-12-23T07:22:56.264Z,13.50
2018-12-23T07:25:24.520Z,13.50
2018-12-23T07:27:52.675Z,13.50
2018-12-23T07:30:21.105Z,13.60
2018-12-23T07:32:49.612Z,13.60
2018-12-23T07:35:17.762Z,13.60
2018-12-23T07:37:46.125Z,13.60
2018-12-23T07:40:14.588Z,13.60
2018-12-23T07:42:42.772Z,13.60
2018-12-23T07:45:10.942Z,13.60
2018-12-23T07:47:39.393Z,13.60
2018-12-23T07:50:07.584Z,13.60
2018-12-23T07:52:35.707Z,13.60
2018-12-23T07:55:04.054Z,13.70
2018-12-23T07:57:33.965Z,13.70
2018-12-23T08:00:04.932Z,13.70
2018-12-23T08:02:33.113Z,13.70
2018-12-23T08:05:04.671Z,13.80
2018-12-23T08:07:37.363Z,13.80
2018-12-23T08:10:05.538Z,13.90
2018-12-23T08:12:37.554Z,14.00
2018-12-23T08:15:06.554Z,14.00
2018-12-23T08:17:34.749Z,14.10
2018-12-23T08:20:05.967Z,14.20
2018-12-23T08:22:34.316Z,14.30
2018-12-23T08:25:05.233Z,14.30
2018-12-23T08:27:34.682Z,14.40
2018-12-23T08:30:04.548Z,14.50
2018-12-23T08:32:32.826Z,14.40
2018-12-23T08:35:01.121Z,14.40
2018-12-23T08:37:29.424Z,14.40
2018-12-23T08:39:57.681Z,14.40
2018-12-23T08:42:26.007Z,14.40
2018-12-23T08:44:54.524Z,14.50
2018-12-23T08:47:23.105Z,14.60
2018-12-23T08:49:51.250Z,14.70
2018-12-23T08:52:19.695Z,14.70
2018-12-23T08:54:48.302Z,14.70
2018-12-23T08:57:16.578Z,14.80
2018-12-23T08:59:44.907Z,14.80
2018-12-23T09:02:13.110Z,14.80
2018-12-23T09:04:41.292Z,14.80
2018-12-23T09:07:09.633Z,14.80
2018-12-23T09:09:38.172Z,14.80
2018-12-23T09:12:06.441Z,14.80
2018-12-23T09:14:34.885Z,14.70
2018-12-23T09:17:03.643Z,14.70
2018-12-23T09:19:32.307Z,14.70
2018-12-23T09:22:00.449Z,14.80
2018-12-23T09:24:28.622Z,14.80
2018-12-23T09:26:56.998Z,14.90
2018-12-23T09:29:25.233Z,15.00
2018-12-23T09:31:53.387Z,15.00
2018-12-23T09:34:21.756Z,15.00
2018-12-23T09:36:50.111Z,15.00
2018-12-23T09:39:18.233Z,15.10
2018-12-23T09:41:46.745Z,15.10
2018-12-23T09:44:15.075Z,15.20
2018-12-23T09:46:43.186Z,15.30
2018-12-23T09:49:11.479Z,15.30
2018-12-23T09:51:40.013Z,15.40
2018-12-23T09:54:16.276Z,15.40
2018-12-23T09:56:44.426Z,15.60
2018-12-23T09:59:12.696Z,15.60
2018-12-23T10:01:41.081Z,15.60
2018-12-23T10:04:10.113Z,15.70
2018-12-23T10:06:38.291Z,15.70
2018-12-23T10:09:07.057Z,15.80
2018-12-23T10:11:35.573Z,15.90
2018-12-23T10:14:03.805Z,16.00
2018-12-23T10:16:31.994Z,16.20
2018-12-23T10:19:00.280Z,16.10
2018-12-23T10:21:28.603Z,16.00
2018-12-23T10:23:56.873Z,15.90
2018-12-23T10:26:25.031Z,15.90
2018-12-23T10:28:53.260Z,15.80
2018-12-23T10:31:21.500Z,15.70
2018-12-23T10:33:49.820Z,15.40
2018-12-23T10:36:17.977Z,15.00
2018-12-23T10:38:46.169Z,14.90
2018-12-23T10:41:14.565Z,14.80
2018-12-23T10:43:44.184Z,14.90
2018-12-23T10:46:12.393Z,14.90
2018-12-23T10:48:40.902Z,15.00
2018-12-23T10:51:13.957Z,15.10
2018-12-23T10:53:42.781Z,15.40
2018-12-23T10:56:11.328Z,15.70
2018-12-23T10:58:39.650Z,16.00
2018-12-23T11:01:08.868Z,16.20
2018-12-23T11:03:37.417Z,16.10
2018-12-23T11:06:06.090Z,16.00
2018-12-23T11:08:34.653Z,16.10
2018-12-23T11:11:03.136Z,16.10
2018-12-23T11:13:31.382Z,16.10
2018-12-23T11:16:01.170Z,16.00
2018-12-23T11:18:29.257Z,15.90
2018-12-23T11:20:58.175Z,15.90
2018-12-23T11:23:26.479Z,15.60
2018-12-23T11:25:54.831Z,15.40
2018-12-23T11:28:23.065Z,15.30
2018-12-23T11:30:51.918Z,15.30
2018-12-23T11:33:20.880Z,15.30
2018-12-23T11:35:49.130Z,15.30
2018-12-23T11:38:17.829Z,15.50
2018-12-23T11:40:45.993Z,15.80
2018-12-23T11:43:17.822Z,16.20
2018-12-23T11:45:46.477Z,16.50
2018-12-23T11:48:14.637Z,16.60
2018-12-23T11:50:45.255Z,16.70
2018-12-23T11:53:13.468Z,16.70
2018-12-23T11:55:44.296Z,16.70
2018-12-23T11:58:18.386Z,16.60
2018-12-23T12:00:46.502Z,16.60
2018-12-23T12:03:17.856Z,16.60
2018-12-23T12:05:46.625Z,16.80
2018-12-23T12:08:14.878Z,16.80
2018-12-23T12:10:44.797Z,17.00
2018-12-23T12:13:14.585Z,17.10
2018-12-23T12:15:42.729Z,17.30
2018-12-23T12:18:11.839Z,17.40
2018-12-23T12:20:40.298Z,17.40
2018-12-23T12:23:09.165Z,17.30
2018-12-23T12:25:38.431Z,17.30
2018-12-23T12:28:06.750Z,17.30
2018-12-23T12:30:35.678Z,17.20
2018-12-23T12:33:04.161Z,17.10
2018-12-23T12:35:32.872Z,17.00
2018-12-23T12:38:01.435Z,16.80
2018-12-23T12:40:29.793Z,16.60
2018-12-23T12:42:58.518Z,16.50
2018-12-23T12:45:26.787Z,16.30
2018-12-23T12:47:55.220Z,16.20
2018-12-23T12:50:23.328Z,16.10
2018-12-23T12:52:52.596Z,16.10
2018-12-23T12:55:20.840Z,16.20
2018-12-23T12:57:49.182Z,16.50
2018-12-23T13:00:21.193Z,16.70
2018-12-23T13:02:50.871Z,16.70
2018-12-23T13:05:21.423Z,16.60
2018-12-23T13:07:53.116Z,16.70
2018-12-23T13:10:22.590Z,16.70
2018-12-23T13:12:51.214Z,16.90
2018-12-23T13:15:20.278Z,16.90
2018-12-23T13:17:51.312Z,16.90
2018-12-23T13:20:24.100Z,16.90
2018-12-23T13:22:53.209Z,16.80
2018-12-23T13:25:24.801Z,16.80
2018-12-23T13:27:54.033Z,16.80
2018-12-23T13:30:23.968Z,16.80
2018-12-23T13:32:53.545Z,16.70
2018-12-23T13:35:22.932Z,16.60
2018-12-23T13:37:52.465Z,16.70
2018-12-23T13:40:38.658Z,16.80
2018-12-23T13:43:23.567Z,16.90
2018-12-23T13:46:26.974Z,16.90
2018-12-23T13:49:28.558Z,16.90
2018-12-23T13:52:25.335Z,16.90
2018-12-23T13:55:37.200Z,16.90
2018-12-23T13:58:57.797Z,16.80
2018-12-23T14:02:09.550Z,16.80
2018-12-23T14:05:14.597Z,16.80
2018-12-23T14:08:35.905Z,16.70
2018-12-23T14:11:46.065Z,16.60
2018-12-23T14:14:14.806Z,16.60
2018-12-23T14:16:52.655Z,16.60
2018-12-23T14:19:27.473Z,16.60
2018-12-23T14:21:57.013Z,16.60
2018-12-23T14:24:28.832Z,16.60
2018-12-23T14:26:59.284Z,16.60
2018-12-23T14:29:28.749Z,16.60
2018-12-23T14:31:59.950Z,16.60
2018-12-23T14:34:29.763Z,16.50
2018-12-23T14:36:59.421Z,16.40
2018-12-23T14:39:29.012Z,16.40
2018-12-23T14:41:58.618Z,16.40
2018-12-23T14:44:27.525Z,16.40
2018-12-23T14:46:56.449Z,16.30
2018-12-23T14:49:25.256Z,16.30
2018-12-23T14:51:57.398Z,16.30
2018-12-23T14:54:27.682Z,16.20
2018-12-23T14:56:56.421Z,16.20
2018-12-23T14:59:26.267Z,16.10
2018-12-23T15:01:58.328Z,16.10
2018-12-23T15:04:27.354Z,16.10
2018-12-23T15:06:56.146Z,15.90
2018-12-23T15:09:25.085Z,15.90
2018-12-23T15:11:54.094Z,15.80
2018-12-23T15:14:22.845Z,15.70
2018-12-23T15:16:50.980Z,15.60
2018-12-23T15:19:22.733Z,15.50
2018-12-23T15:21:54.048Z,15.40
2018-12-23T15:24:24.149Z,15.40
2018-12-23T15:26:53.244Z,15.30
2018-12-23T15:29:29.090Z,15.30
2018-12-23T15:31:57.997Z,15.20
2018-12-23T15:34:39.408Z,15.20
2018-12-23T15:37:08.417Z,15.10
2018-12-23T15:39:42.584Z,15.00
2018-12-23T15:42:08.663Z,15.00
2018-12-23T15:44:37.442Z,15.00
2018-12-23T15:47:06.403Z,15.00
2018-12-23T15:49:35.308Z,15.00
2018-12-23T15:52:04.210Z,15.00
2018-12-23T15:54:32.923Z,14.90
2018-12-23T15:57:02.218Z,14.90
2018-12-23T15:59:31.381Z,14.90
2018-12-23T16:02:00.458Z,14.80
2018-12-23T16:04:29.255Z,14.60
2018-12-23T16:06:58.071Z,14.50
2018-12-23T16:09:27.273Z,14.40
2018-12-23T16:11:56.071Z,14.30
2018-12-23T16:14:30.003Z,14.20
2018-12-23T16:16:58.757Z,14.20
2018-12-23T16:19:27.494Z,14.20
2018-12-23T16:21:56.176Z,14.10
2018-12-23T16:24:24.745Z,14.00
2018-12-23T16:26:53.665Z,14.00
2018-12-23T16:29:22.737Z,13.90
2018-12-23T16:31:51.846Z,13.80
2018-12-23T16:34:19.957Z,13.70
2018-12-23T16:36:48.897Z,13.70
2018-12-23T16:39:17.343Z,13.60
2018-12-23T16:41:46.082Z,13.60
2018-12-23T16:44:15.015Z,13.50
2018-12-23T16:46:43.190Z,13.50
2018-12-23T16:49:12.053Z,13.50
2018-12-23T16:51:44.627Z,13.40
2018-12-23T16:54:13.984Z,13.40
2018-12-23T16:56:43.053Z,13.30
2018-12-23T16:59:13.691Z,13.30
2018-12-23T17:01:43.786Z,13.30
2018-12-23T17:04:12.261Z,13.30
2018-12-23T17:06:41.583Z,13.40
2018-12-23T17:09:10.598Z,13.30
2018-12-23T17:11:39.954Z,13.30
2018-12-23T17:14:10.835Z,13.20
2018-12-23T17:16:42.147Z,13.20
2018-12-23T17:19:10.748Z,13.20
2018-12-23T17:21:39.777Z,13.20
2018-12-23T17:24:08.760Z,13.20
2018-12-23T17:26:38.243Z,13.10
2018-12-23T17:29:07.139Z,13.10
2018-12-23T17:31:36.799Z,13.00
2018-12-23T17:34:05.610Z,13.00
2018-12-23T17:36:38.420Z,13.00
2018-12-23T17:39:11.094Z,13.00
2018-12-23T17:41:39.894Z,13.00
2018-12-23T17:44:09.079Z,12.90
2018-12-23T17:46:37.228Z,12.90
2018-12-23T17:49:06.445Z,12.90
2018-12-23T17:51:36.071Z,12.90
2018-12-23T17:54:06.853Z,12.90
2018-12-23T17:56:37.124Z,12.90
2018-12-23T17:59:06.540Z,12.90
2018-12-23T18:01:35.833Z,12.80
2018-12-23T18:04:07.489Z,12.80
2018-12-23T18:06:37.953Z,12.80
2018-12-23T18:09:07.261Z,12.70
2018-12-23T18:11:36.406Z,12.70
2018-12-23T18:14:05.773Z,12.60
2018-12-23T18:16:33.993Z,12.60
2018-12-23T18:19:02.664Z,12.50
2018-12-23T18:21:31.607Z,12.50
2018-12-23T18:24:00.401Z,12.40
2018-12-23T18:26:29.563Z,12.40
2018-12-23T18:28:58.277Z,12.40
2018-12-23T18:31:27.102Z,12.40
2018-12-23T18:33:55.207Z,12.50
2018-12-23T18:36:24.305Z,12.40
2018-12-23T18:38:53.126Z,12.50
2018-12-23T18:41:21.907Z,12.50
2018-12-23T18:43:51.059Z,12.50
2018-12-23T18:46:20.172Z,12.40
2018-12-23T18:48:49.029Z,12.40
2018-12-23T18:51:17.823Z,12.30
2018-12-23T18:53:46.763Z,12.30
2018-12-23T18:56:16.121Z,12.20
2018-12-23T18:58:44.885Z,12.20
2018-12-23T19:01:13.892Z,12.20
2018-12-23T19:03:45.551Z,12.20
2018-12-23T19:06:13.790Z,12.10
2018-12-23T19:09:13.239Z,12.10
2018-12-23T19:12:24.809Z,12.10
2018-12-23T19:15:33.945Z,12.10
2018-12-23T19:18:32.643Z,12.10
2018-12-23T19:21:41.158Z,12.10
2018-12-23T19:24:21.373Z,12.10
2018-12-23T19:27:26.319Z,12.10
2018-12-23T19:30:18.792Z,12.10
2018-12-23T19:33:29.128Z,12.10
2018-12-23T19:36:46.361Z,12.00
2018-12-23T19:39:54.506Z,11.90
2018-12-23T19:43:03.002Z,11.80
2018-12-23T19:46:00.150Z,11.80
2018-12-23T19:49:24.984Z,11.70
2018-12-23T19:52:40.509Z,11.70
2018-12-23T19:55:27.731Z,11.70
2018-12-23T19:58:32.198Z,11.70
2018-12-23T20:01:23.488Z,11.80
2018-12-23T20:04:30.353Z,11.80
2018-12-23T20:07:55.429Z,11.80
2018-12-23T20:11:01.304Z,11.80
2018-12-23T20:14:07.567Z,11.80
2018-12-23T20:17:11.959Z,11.90
2018-12-23T20:20:20.562Z,11.90
2018-12-23T20:23:25.527Z,12.00
2018-12-23T20:26:38.120Z,12.10
2018-12-23T20:29:40.806Z,12.10
2018-12-23T20:32:22.325Z,12.10
2018-12-23T20:35:30.588Z,12.10
2018-12-23T20:38:32.234Z,12.00
2018-12-23T20:41:27.388Z,12.10
2018-12-23T20:44:34.306Z,12.10
2018-12-23T20:47:22.237Z,12.10
2018-12-23T20:50:17.321Z,12.00
2018-12-23T20:53:26.785Z,12.00
2018-12-23T20:56:41.901Z,12.00
2018-12-23T20:59:36.218Z,11.90
2018-12-23T21:03:15.137Z,11.90
2018-12-23T21:06:20.871Z,11.90
2018-12-23T21:09:11.830Z,11.90
2018-12-23T21:12:25.637Z,11.90
2018-12-23T21:15:47.561Z,11.80
2018-12-23T21:18:53.300Z,11.80
2018-12-23T21:22:00.725Z,11.70
2018-12-23T21:25:15.666Z,11.70
2018-12-23T21:28:21.142Z,11.70
2018-12-23T21:31:18.972Z,11.60
2018-12-23T21:34:23.857Z,11.60
2018-12-23T21:37:22.594Z,11.60
2018-12-23T21:40:22.468Z,11.60
2018-12-23T21:43:41.846Z,11.60
2018-12-23T21:46:56.746Z,11.50
2018-12-23T21:50:04.681Z,11.30
2018-12-23T21:53:29.584Z,11.10
2018-12-23T21:56:51.298Z,11.00
2018-12-23T22:00:19.121Z,11.00
2018-12-23T22:03:23.541Z,11.00
2018-12-23T22:06:23.387Z,11.10
2018-12-23T22:09:28.292Z,11.10
2018-12-23T22:12:52.880Z,11.20
2018-12-23T22:15:21.272Z,11.30
2018-12-23T22:17:49.990Z,11.30
2018-12-23T22:20:18.498Z,11.30
2018-12-23T22:22:46.645Z,11.30
2018-12-23T22:25:14.873Z,11.30
2018-12-23T22:27:43.042Z,11.30
2018-12-23T22:30:11.192Z,11.30
2018-12-23T22:32:39.342Z,11.30
2018-12-23T22:35:07.538Z,11.30
2018-12-23T22:37:35.695Z,11.30
2018-12-23T22:40:04.432Z,11.30
2018-12-23T22:42:32.673Z,11.20
2018-12-23T22:45:01.137Z,11.20
2018-12-23T22:47:29.448Z,11.10
2018-12-23T22:49:57.825Z,11.00
2018-12-23T22:52:26.186Z,10.90
2018-12-23T22:54:54.493Z,10.90
2018-12-23T22:57:25.846Z,10.80
2018-12-23T22:59:54.094Z,10.90
2018-12-23T23:02:24.185Z,10.90
2018-12-23T23:04:52.885Z,10.90
2018-12-23T23:07:21.481Z,10.80
2018-12-23T23:09:49.740Z,10.80
2018-12-23T23:12:17.997Z,10.80
2018-12-23T23:14:46.398Z,10.70
2018-12-23T23:17:14.815Z,10.60
2018-12-23T23:19:43.197Z,10.60
2018-12-23T23:22:11.445Z,10.60
2018-12-23T23:24:39.689Z,10.60
2018-12-23T23:27:08.033Z,10.70
2018-12-23T23:29:36.224Z,10.70
2018-12-23T23:32:04.700Z,10.70
2018-12-23T23:34:33.146Z,10.70
2018-12-23T23:37:01.382Z,10.60
2018-12-23T23:39:29.658Z,10.70
2018-12-23T23:41:58.560Z,10.70
2018-12-23T23:44:27.327Z,10.70
2018-12-23T23:46:55.633Z,10.70
2018-12-23T23:49:24.086Z,10.80
2018-12-23T23:51:52.269Z,10.80
2018-12-23T23:54:20.438Z,10.80
2018-12-23T23:56:48.628Z,10.80
2018-12-23T23:59:16.770Z,10.80
